createdAt,value
2024-02-28T00:00:11.762Z,100736.25
2024-02-28T00:05:13.321Z,100743.25
2024-02-28T00:10:15.216Z,100745.16
2024-02-28T00:15:16.947Z,100742.22
2024-02-28T00:20:18.596Z,100737.09
2024-02-28T00:25:20.164Z,100748.56
2024-02-28T00:30:21.683Z,100744.19
2024-02-28T00:35:23.169Z,100743.91
2024-02-28T00:40:26.126Z,100749.31
2024-02-28T00:45:27.656Z,100756.19
2024-02-28T00:50:29.154Z,100754.28
2024-02-28T00:55:30.662Z,100752.06
2024-02-28T01:00:32.325Z,100762.56
2024-02-28T01:05:34.171Z,100756.19
2024-02-28T01:10:35.781Z,100757.16
2024-02-28T01:15:37.494Z,100760.34
2024-02-28T01:20:39.050Z,100765.84
2024-02-28T01:25:40.762Z,100758.78
2024-02-28T01:30:42.260Z,100751.09
2024-02-28T01:35:43.766Z,100744.84
2024-02-28T01:40:48.140Z,100745.41
2024-02-28T01:45:50.755Z,100737.97
2024-02-28T01:50:52.337Z,100725.09
2024-02-28T01:55:55.488Z,100729.25
2024-02-28T02:00:57.696Z,100726.78
2024-02-28T02:05:59.223Z,100731.63
2024-02-28T02:11:00.911Z,100732.56
2024-02-28T02:16:02.947Z,100731.16
2024-02-28T02:21:07.792Z,100728.41
2024-02-28T02:26:09.419Z,100732.50
2024-02-28T02:31:14.019Z,100730.50
2024-02-28T02:36:15.546Z,100727.84
2024-02-28T02:41:17.050Z,100738.22
2024-02-28T02:46:18.548Z,100735.16
2024-02-28T02:51:21.165Z,100740.72
2024-02-28T02:56:22.699Z,100744.69
2024-02-28T03:01:24.202Z,100746.38
2024-02-28T03:06:25.789Z,100746.09
2024-02-28T03:11:27.374Z,100743.59
2024-02-28T03:16:30.174Z,100750.91
2024-02-28T03:21:31.733Z,100756.84
2024-02-28T03:26:33.880Z,100776.81
2024-02-28T03:31:35.356Z,100780.94
2024-02-28T03:36:36.858Z,100782.94
2024-02-28T03:41:39.120Z,100794.63
2024-02-28T03:46:40.600Z,100805.00
2024-02-28T03:51:42.414Z,100808.78
2024-02-28T03:56:43.981Z,100820.31
2024-02-28T04:01:45.536Z,100824.50
2024-02-28T04:06:47.082Z,100826.72
2024-02-28T04:11:48.631Z,100835.44
2024-02-28T04:16:51.400Z,100847.88
2024-02-28T04:21:53.006Z,100856.66
2024-02-28T04:26:54.564Z,100863.75
2024-02-28T04:31:56.062Z,100883.50
2024-02-28T04:36:57.597Z,100872.22
2024-02-28T04:41:59.192Z,100873.66
2024-02-28T04:47:00.689Z,100880.06
2024-02-28T04:52:02.224Z,100875.22
2024-02-28T04:57:04.328Z,100886.41
2024-02-28T05:02:06.236Z,100884.47
2024-02-28T05:07:08.565Z,100889.00
2024-02-28T05:12:10.157Z,100895.91
2024-02-28T05:17:11.653Z,100896.69
2024-02-28T05:22:13.120Z,100900.03
2024-02-28T05:27:14.809Z,100906.50
2024-02-28T05:32:18.045Z,100901.78
2024-02-28T05:37:19.669Z,100904.16
2024-02-28T05:42:25.147Z,100903.81
2024-02-28T05:47:26.705Z,100907.78
2024-02-28T05:52:28.360Z,100908.28
2024-02-28T05:57:29.903Z,100923.47
2024-02-28T06:02:31.418Z,100922.91
2024-02-28T06:07:32.919Z,100924.28
2024-02-28T06:12:34.453Z,100932.59
2024-02-28T06:17:35.969Z,100932.13
2024-02-28T06:22:37.454Z,100941.06
2024-02-28T06:27:38.955Z,100944.94
2024-02-28T06:32:40.518Z,100958.13
2024-02-28T06:37:42.069Z,100957.09
2024-02-28T06:42:43.563Z,100959.47
2024-02-28T06:52:47.841Z,100978.94
2024-02-28T06:57:49.545Z,100987.88
2024-02-28T07:02:51.674Z,100985.34
2024-02-28T07:07:53.185Z,100991.97
2024-02-28T07:12:54.756Z,100986.69
2024-02-28T07:17:56.360Z,100986.25
2024-02-28T07:22:57.901Z,100995.13
2024-02-28T07:28:03.738Z,100990.78
2024-02-28T07:33:07.002Z,100992.50
2024-02-28T07:38:10.125Z,100999.31
2024-02-28T07:43:11.613Z,100992.41
2024-02-28T07:48:13.357Z,100999.31
2024-02-28T07:53:14.919Z,101001.63
2024-02-28T07:58:17.748Z,101002.97
2024-02-28T08:03:19.963Z,101019.38
2024-02-28T08:08:21.472Z,101023.91
2024-02-28T08:13:23.275Z,101032.84
2024-02-28T08:18:24.958Z,101034.63
2024-02-28T08:23:27.475Z,101037.47
2024-02-28T08:28:28.987Z,101048.56
2024-02-28T08:33:30.622Z,101049.25
2024-02-28T08:38:32.260Z,101039.88
2024-02-28T08:43:38.372Z,101054.34
2024-02-28T08:48:41.450Z,101051.47
2024-02-28T08:53:42.965Z,101061.28
2024-02-28T08:58:45.701Z,101052.22
2024-02-28T09:03:47.260Z,101064.69
2024-02-28T09:08:48.988Z,101071.44
2024-02-28T09:13:50.475Z,101059.22
2024-02-28T09:18:51.984Z,101049.16
2024-02-28T09:23:53.575Z,101056.06
2024-02-28T09:28:55.073Z,101057.19
2024-02-28T09:33:59.296Z,101074.34
2024-02-28T09:39:01.755Z,101074.50
2024-02-28T09:44:03.993Z,101080.66
2024-02-28T09:49:06.526Z,101074.06
2024-02-28T09:54:08.216Z,101078.94
2024-02-28T09:59:11.921Z,101082.78
2024-02-28T10:04:14.634Z,101104.56
2024-02-28T10:09:16.182Z,101110.34
2024-02-28T10:14:20.743Z,101114.63
2024-02-28T10:19:22.251Z,101126.41
2024-02-28T10:24:26.606Z,101130.34
2024-02-28T10:29:33.788Z,101136.38
2024-02-28T10:34:36.165Z,101143.50
2024-02-28T10:39:39.232Z,101148.38
2024-02-28T10:44:43.435Z,101142.88
2024-02-28T10:49:45.384Z,101138.88
2024-02-28T10:54:54.935Z,101142.63
2024-02-28T10:59:57.495Z,101142.88
2024-02-28T11:05:01.604Z,101135.97
2024-02-28T11:10:07.786Z,101138.38
2024-02-28T11:15:18.301Z,101143.50
2024-02-28T11:20:20.177Z,101136.69
2024-02-28T11:25:21.751Z,101150.47
2024-02-28T11:30:23.361Z,101145.97
2024-02-28T11:35:24.860Z,101151.44
2024-02-28T11:40:26.638Z,101149.03
2024-02-28T11:45:28.217Z,101144.00
2024-02-28T11:50:31.534Z,101156.56
2024-02-28T11:55:33.226Z,101144.50
2024-02-28T12:00:34.784Z,101153.16
2024-02-28T12:05:39.861Z,101160.22
2024-02-28T12:10:41.341Z,101149.22
2024-02-28T12:15:42.936Z,101146.03
2024-02-28T12:20:44.518Z,101146.47
2024-02-28T12:25:46.230Z,101144.41
2024-02-28T12:30:47.789Z,101143.03
2024-02-28T12:35:49.513Z,101144.59
2024-02-28T12:40:51.052Z,101126.63
2024-02-28T12:45:52.603Z,101132.72
2024-02-28T12:50:54.448Z,101127.75
2024-02-28T12:55:56.028Z,101129.72
2024-02-28T13:00:57.603Z,101130.19
2024-02-28T13:05:59.460Z,101138.59
2024-02-28T13:11:01.624Z,101123.97
2024-02-28T13:16:09.466Z,101126.38
2024-02-28T13:21:11.447Z,101116.13
2024-02-28T13:26:18.999Z,101114.63
2024-02-28T13:31:20.998Z,101116.78
2024-02-28T13:36:22.830Z,101116.47
2024-02-28T13:41:24.371Z,101113.13
2024-02-28T13:46:25.842Z,101107.28
2024-02-28T13:51:27.924Z,101105.50
2024-02-28T13:56:31.384Z,101100.47
2024-02-28T14:01:33.306Z,101100.03
2024-02-28T14:06:34.836Z,101097.63
2024-02-28T14:11:36.372Z,101097.81
2024-02-28T14:16:37.895Z,101089.56
2024-02-28T14:21:39.393Z,101090.69
2024-02-28T14:26:40.918Z,101072.88
2024-02-28T14:31:43.328Z,101075.97
2024-02-28T14:36:44.838Z,101072.59
2024-02-28T14:41:46.409Z,101067.97
2024-02-28T14:46:47.931Z,101072.38
2024-02-28T14:51:50.248Z,101077.00
2024-02-28T14:56:51.779Z,101079.28
2024-02-28T15:01:54.385Z,101068.16
2024-02-28T15:06:55.981Z,101073.94
2024-02-28T15:11:57.636Z,101068.19
2024-02-28T15:16:59.183Z,101072.38
2024-02-28T15:22:00.760Z,101066.41
2024-02-28T15:27:02.279Z,101071.38
2024-02-28T15:32:03.916Z,101068.28
2024-02-28T15:37:05.574Z,101076.72
2024-02-28T15:42:08.837Z,101089.59
2024-02-28T15:47:10.521Z,101100.53
2024-02-28T15:52:12.114Z,101108.31
2024-02-28T15:57:13.696Z,101112.59
2024-02-28T16:02:15.391Z,101114.19
2024-02-28T16:07:17.102Z,101116.53
2024-02-28T16:12:18.714Z,101128.25
2024-02-28T16:17:20.192Z,101123.75
2024-02-28T16:22:22.102Z,101124.31
2024-02-28T16:27:23.685Z,101126.66
2024-02-28T16:32:25.190Z,101123.16
2024-02-28T16:37:27.005Z,101121.56
2024-02-28T16:42:28.494Z,101119.97
2024-02-28T16:47:30.702Z,101117.72
2024-02-28T16:52:32.208Z,101118.00
2024-02-28T16:57:33.749Z,101123.53
2024-02-28T17:02:36.767Z,101111.50
2024-02-28T17:07:38.273Z,101117.75
2024-02-28T17:12:40.430Z,101124.84
2024-02-28T17:17:41.954Z,101131.25
2024-02-28T17:22:43.462Z,101127.34
2024-02-28T17:27:45.104Z,101142.66
2024-02-28T17:32:49.283Z,101145.06
2024-02-28T17:37:50.837Z,101145.97
2024-02-28T17:42:52.327Z,101143.31
2024-02-28T17:47:53.921Z,101149.13
2024-02-28T17:52:56.716Z,101147.59
2024-02-28T17:57:58.232Z,101147.75
2024-02-28T18:02:59.727Z,101147.94
2024-02-28T18:08:01.205Z,101150.94
2024-02-28T18:13:02.778Z,101153.59
2024-02-28T18:18:04.545Z,101151.59
2024-02-28T18:23:07.589Z,101152.81
2024-02-28T18:28:10.398Z,101157.88
2024-02-28T18:33:12.367Z,101157.41
2024-02-28T18:38:13.920Z,101168.47
2024-02-28T18:43:18.246Z,101164.72
2024-02-28T18:48:19.841Z,101163.34
2024-02-28T18:53:21.323Z,101158.84
2024-02-28T18:58:22.980Z,101168.78
2024-02-28T19:03:24.509Z,101175.63
2024-02-28T19:08:26.059Z,101174.00
2024-02-28T19:13:29.216Z,101181.84
2024-02-28T19:18:30.807Z,101189.34
2024-02-28T19:23:32.430Z,101181.50
2024-02-28T19:28:33.922Z,101181.16
2024-02-28T19:33:39.741Z,101176.19
2024-02-28T19:38:43.539Z,101177.97
2024-02-28T19:43:45.047Z,101177.59
2024-02-28T19:48:48.678Z,101176.09
2024-02-28T19:53:50.477Z,101173.41
2024-02-28T19:58:52.362Z,101171.00
2024-02-28T20:03:53.883Z,101172.22
2024-02-28T20:08:55.350Z,101166.69
2024-02-28T20:13:56.982Z,101163.47
2024-02-28T20:18:58.545Z,101167.69
2024-02-28T20:24:00.047Z,101169.94
2024-02-28T20:29:01.623Z,101169.22
2024-02-28T20:34:03.193Z,101170.47
2024-02-28T20:39:04.717Z,101164.56
2024-02-28T20:44:10.609Z,101165.25
2024-02-28T20:49:12.431Z,101161.41
2024-02-28T20:54:14.047Z,101159.16
2024-02-28T20:59:15.529Z,101159.59
2024-02-28T21:04:17.172Z,101157.72
2024-02-28T21:09:18.744Z,101170.16
2024-02-28T21:14:20.225Z,101158.66
2024-02-28T21:19:21.704Z,101154.56
2024-02-28T21:24:23.201Z,101161.31
2024-02-28T21:29:24.732Z,101158.09
2024-02-28T21:34:26.228Z,101160.00
2024-02-28T21:39:27.812Z,101152.19
2024-02-28T21:44:29.781Z,101157.16
2024-02-28T21:49:31.292Z,101149.00
2024-02-28T21:54:32.881Z,101141.09
2024-02-28T21:59:34.850Z,101145.34
2024-02-28T22:04:36.325Z,101150.44
2024-02-28T22:09:38.085Z,101142.41
2024-02-28T22:14:39.688Z,101133.81
2024-02-28T22:19:41.170Z,101139.44
2024-02-28T22:24:43.149Z,101141.28
2024-02-28T22:29:44.650Z,101138.59
2024-02-28T22:34:46.137Z,101130.03
2024-02-28T22:39:48.381Z,101134.06
2024-02-28T22:44:49.787Z,101134.88
2024-02-28T22:49:51.263Z,101143.16
2024-02-28T22:54:52.818Z,101135.94
2024-02-28T22:59:54.360Z,101141.28
2024-02-28T23:04:57.014Z,101135.34
2024-02-28T23:09:58.506Z,101131.47
2024-02-28T23:14:59.998Z,101139.34
2024-02-28T23:20:01.494Z,101136.13
2024-02-28T23:25:03.129Z,101136.13
2024-02-28T23:30:07.081Z,101134.94
2024-02-28T23:35:09.445Z,101145.47
2024-02-28T23:40:12.812Z,101142.31
2024-02-28T23:45:14.427Z,101135.44
2024-02-28T23:50:18.487Z,101134.94
2024-02-28T23:55:20.374Z,101127.00
